createdAt,value
2022-12-13T00:01:51.990Z,-8.27
2022-12-13T00:04:20.240Z,-8.27
2022-12-13T00:06:47.170Z,-8.32
2022-12-13T00:09:18.315Z,-8.36
2022-12-13T00:11:45.233Z,-8.37
2022-12-13T00:14:14.217Z,-8.32
2022-12-13T00:16:41.491Z,-8.34
2022-12-13T00:19:08.093Z,-8.43
2022-12-13T00:21:34.671Z,-8.44
2022-12-13T00:24:01.574Z,-8.38
2022-12-13T00:26:30.765Z,-8.42
2022-12-13T00:29:00.477Z,-8.48
2022-12-13T00:31:56.817Z,-8.31
2022-12-13T00:34:14.472Z,-8.35
2022-12-13T00:36:41.052Z,-8.51
2022-12-13T00:39:07.747Z,-8.53
2022-12-13T00:41:36.366Z,-8.47
2022-12-13T00:44:05.127Z,-8.50
2022-12-13T00:46:32.508Z,-8.63
2022-12-13T00:49:01.223Z,-8.58
2022-12-13T00:51:30.253Z,-8.56
2022-12-13T00:53:57.881Z,-8.52
2022-12-13T00:56:27.638Z,-8.40
2022-12-13T00:58:55.244Z,-8.35
2022-12-13T01:01:24.689Z,-8.40
2022-12-13T01:03:53.839Z,-8.50
2022-12-13T01:06:23.640Z,-8.56
2022-12-13T01:08:50.261Z,-8.56
2022-12-13T01:11:17.493Z,-8.50
2022-12-13T01:13:44.694Z,-8.43
2022-12-13T01:16:13.103Z,-8.53
2022-12-13T01:18:40.615Z,-8.48
2022-12-13T01:21:11.054Z,-8.55
2022-12-13T01:23:38.060Z,-8.61
2022-12-13T01:26:06.714Z,-8.60
2022-12-13T01:28:33.698Z,-8.60
2022-12-13T01:31:03.294Z,-8.63
2022-12-13T01:33:31.192Z,-8.57
2022-12-13T01:36:01.096Z,-8.59
2022-12-13T01:38:27.622Z,-8.57
2022-12-13T01:40:58.998Z,-8.46
2022-12-13T01:43:25.794Z,-8.44
2022-12-13T01:45:52.805Z,-8.43
2022-12-13T01:48:28.169Z,-8.37
2022-12-13T01:51:02.309Z,-8.35
2022-12-13T01:53:32.389Z,-8.29
2022-12-13T01:56:05.568Z,-8.20
2022-12-13T01:58:33.022Z,-8.12
2022-12-13T02:01:00.328Z,-8.00
2022-12-13T02:03:27.276Z,-7.94
2022-12-13T02:06:03.263Z,-7.90
2022-12-13T02:08:30.075Z,-7.85
2022-12-13T02:10:58.065Z,-7.79
2022-12-13T02:13:25.174Z,-7.70
2022-12-13T02:16:22.127Z,-7.66
2022-12-13T02:19:18.728Z,-7.60
2022-12-13T02:22:03.823Z,-7.57
2022-12-13T02:24:33.224Z,-7.56
2022-12-13T02:27:33.252Z,-7.54
2022-12-13T02:30:30.551Z,-7.51
2022-12-13T02:33:21.473Z,-7.48
2022-12-13T02:35:57.378Z,-7.45
2022-12-13T02:38:36.548Z,-7.38
2022-12-13T02:41:09.910Z,-7.34
2022-12-13T02:43:47.772Z,-7.31
2022-12-13T02:46:20.647Z,-7.26
2022-12-13T02:48:51.093Z,-7.20
2022-12-13T02:51:19.669Z,-7.16
2022-12-13T02:53:46.806Z,-7.16
2022-12-13T02:56:13.644Z,-7.09
2022-12-13T02:58:47.843Z,-6.89
2022-12-13T03:01:27.810Z,-6.65
2022-12-13T03:04:17.249Z,-6.63
2022-12-13T03:06:52.623Z,-6.62
2022-12-13T03:09:31.124Z,-6.62
2022-12-13T03:12:33.143Z,-6.63
2022-12-13T03:15:03.245Z,-6.63
2022-12-13T03:17:34.775Z,-6.61
2022-12-13T03:20:02.918Z,-6.59
2022-12-13T03:22:39.285Z,-6.58
2022-12-13T03:25:06.267Z,-6.55
2022-12-13T03:27:32.850Z,-6.53
2022-12-13T03:30:00.287Z,-6.52
2022-12-13T03:32:26.917Z,-6.54
2022-12-13T03:35:00.616Z,-6.53
2022-12-13T03:37:27.843Z,-6.57
2022-12-13T03:39:54.703Z,-6.59
2022-12-13T03:42:21.317Z,-6.62
2022-12-13T03:44:47.842Z,-6.56
2022-12-13T03:47:14.410Z,-6.51
2022-12-13T03:49:40.923Z,-6.38
2022-12-13T03:52:07.421Z,-6.36
2022-12-13T03:54:33.987Z,-6.40
2022-12-13T03:57:01.394Z,-6.42
2022-12-13T03:59:27.928Z,-6.38
2022-12-13T04:01:54.476Z,-6.41
2022-12-13T04:04:21.070Z,-6.28
2022-12-13T04:06:47.600Z,-6.26
2022-12-13T04:09:14.123Z,-6.31
2022-12-13T04:11:59.233Z,-6.24
2022-12-13T04:14:25.892Z,-6.32
2022-12-13T04:16:52.529Z,-6.38
2022-12-13T04:19:23.835Z,-6.50
2022-12-13T04:21:56.887Z,-6.52
2022-12-13T04:24:31.818Z,-6.49
2022-12-13T04:26:59.567Z,-6.56
2022-12-13T04:29:27.719Z,-6.50
2022-12-13T04:32:01.322Z,-6.48
2022-12-13T04:34:30.676Z,-6.51
2022-12-13T04:37:01.716Z,-6.35
2022-12-13T04:39:28.235Z,-6.37
2022-12-13T04:42:01.448Z,-6.29
2022-12-13T04:44:31.447Z,-6.32
2022-12-13T04:47:02.739Z,-6.32
2022-12-13T04:49:30.358Z,-6.26
2022-12-13T04:52:01.329Z,-6.16
2022-12-13T04:54:28.857Z,-6.12
2022-12-13T04:57:04.081Z,-6.22
2022-12-13T04:59:30.605Z,-6.21
2022-12-13T05:01:57.170Z,-6.13
2022-12-13T05:04:28.957Z,-6.03
2022-12-13T05:06:58.932Z,-6.11
2022-12-13T05:09:25.545Z,-6.09
2022-12-13T05:11:52.080Z,-6.05
2022-12-13T05:14:28.055Z,-6.07
2022-12-13T05:16:54.630Z,-5.96
2022-12-13T05:19:21.275Z,-5.97
2022-12-13T05:21:57.393Z,-6.01
2022-12-13T05:24:29.364Z,-5.98
2022-12-13T05:26:55.887Z,-5.93
2022-12-13T05:29:22.390Z,-5.85
2022-12-13T05:31:48.972Z,-5.83
2022-12-13T05:34:15.732Z,-5.93
2022-12-13T05:36:42.288Z,-5.95
2022-12-13T05:39:28.479Z,-5.92
2022-12-13T05:42:01.719Z,-5.97
2022-12-13T05:44:29.800Z,-5.98
2022-12-13T05:46:56.287Z,-5.97
2022-12-13T05:49:22.782Z,-5.96
2022-12-13T05:51:49.833Z,-5.95
2022-12-13T05:54:16.373Z,-5.95
2022-12-13T05:56:42.983Z,-5.96
2022-12-13T05:59:09.482Z,-5.95
2022-12-13T06:01:36.020Z,-5.93
2022-12-13T06:04:10.402Z,-5.88
2022-12-13T06:06:36.917Z,-5.81
2022-12-13T06:09:03.949Z,-5.76
2022-12-13T06:11:31.928Z,-5.71
2022-12-13T06:14:00.759Z,-5.72
2022-12-13T06:16:27.853Z,-5.72
2022-12-13T06:19:03.240Z,-5.67
2022-12-13T06:21:41.401Z,-5.59
2022-12-13T06:24:12.842Z,-5.57
2022-12-13T06:26:39.397Z,-5.52
2022-12-13T06:29:05.885Z,-5.50
2022-12-13T06:31:32.787Z,-5.53
2022-12-13T06:34:13.788Z,-5.57
2022-12-13T06:36:42.326Z,-5.57
2022-12-13T06:39:08.858Z,-5.58
2022-12-13T06:41:36.478Z,-5.58
2022-12-13T06:44:03.143Z,-5.60
2022-12-13T06:46:29.733Z,-5.61
2022-12-13T06:48:56.757Z,-5.65
2022-12-13T06:51:23.324Z,-5.65
2022-12-13T06:54:00.905Z,-5.65
2022-12-13T06:56:28.079Z,-5.64
2022-12-13T06:59:01.510Z,-5.60
2022-12-13T07:01:37.119Z,-5.56
2022-12-13T07:04:04.602Z,-5.53
2022-12-13T07:06:31.169Z,-5.50
2022-12-13T07:08:58.536Z,-5.51
2022-12-13T07:11:28.293Z,-5.53
2022-12-13T07:13:55.611Z,-5.54
2022-12-13T07:16:23.058Z,-5.49
2022-12-13T07:19:01.347Z,-5.47
2022-12-13T07:21:29.039Z,-5.44
2022-12-13T07:23:55.695Z,-5.40
2022-12-13T07:26:22.460Z,-5.41
2022-12-13T07:28:54.720Z,-5.40
2022-12-13T07:31:21.846Z,-5.40
2022-12-13T07:33:48.898Z,-5.41
2022-12-13T07:36:18.898Z,-5.39
2022-12-13T07:38:50.229Z,-5.34
2022-12-13T07:41:23.472Z,-5.29
2022-12-13T07:43:55.052Z,-5.24
2022-12-13T07:46:32.928Z,-5.23
2022-12-13T07:49:03.094Z,-5.19
2022-12-13T07:51:29.828Z,-5.15
2022-12-13T07:53:57.290Z,-5.15
2022-12-13T07:56:23.795Z,-5.13
2022-12-13T07:58:50.335Z,-5.13
2022-12-13T08:01:17.441Z,-5.12
2022-12-13T08:03:44.024Z,-5.07
2022-12-13T08:06:12.918Z,-5.05
2022-12-13T08:08:39.855Z,-4.98
2022-12-13T08:11:11.929Z,-4.93
2022-12-13T08:13:39.363Z,-4.90
2022-12-13T08:16:26.362Z,-4.84
2022-12-13T08:19:03.283Z,-4.85
2022-12-13T08:24:23.944Z,-4.80
2022-12-13T08:26:50.494Z,-4.77
2022-12-13T08:29:22.851Z,-4.74
2022-12-13T08:32:01.812Z,-4.72
2022-12-13T08:34:28.600Z,-4.68
2022-12-13T08:37:01.524Z,-4.63
2022-12-13T08:39:30.509Z,-4.64
2022-12-13T08:42:14.847Z,-4.62
2022-12-13T08:44:42.670Z,-4.62
2022-12-13T08:47:09.568Z,-4.59
2022-12-13T08:49:36.100Z,-4.59
2022-12-13T08:52:02.632Z,-4.57
2022-12-13T08:54:31.353Z,-4.56
2022-12-13T08:56:58.308Z,-4.51
2022-12-13T08:59:26.125Z,-4.48
2022-12-13T09:01:53.690Z,-4.46
2022-12-13T09:04:31.520Z,-4.41
2022-12-13T09:06:58.385Z,-4.39
2022-12-13T09:09:29.407Z,-4.36
2022-12-13T09:11:59.643Z,-4.34
2022-12-13T09:14:34.012Z,-4.30
2022-12-13T09:17:03.321Z,-4.27
2022-12-13T09:19:37.263Z,-4.23
2022-12-13T09:22:04.861Z,-4.19
2022-12-13T09:24:36.714Z,-4.14
2022-12-13T09:27:09.641Z,-4.10
2022-12-13T09:29:36.971Z,-4.04
2022-12-13T09:32:03.696Z,-4.02
2022-12-13T09:34:30.317Z,-3.95
2022-12-13T09:37:01.445Z,-3.95
2022-12-13T09:39:29.171Z,-3.91
2022-12-13T09:42:00.669Z,-3.87
2022-12-13T09:44:43.774Z,-3.83
2022-12-13T09:47:22.744Z,-3.75
2022-12-13T09:49:52.658Z,-3.72
2022-12-13T09:52:23.408Z,-3.68
2022-12-13T09:54:55.854Z,-3.63
2022-12-13T09:57:32.046Z,-3.63
2022-12-13T10:00:02.593Z,-3.58
2022-12-13T10:02:32.329Z,-3.57
2022-12-13T10:05:39.518Z,-3.50
2022-12-13T10:08:15.357Z,-3.49
2022-12-13T10:10:43.727Z,-3.44
2022-12-13T10:13:27.341Z,-3.39
2022-12-13T10:16:09.118Z,-3.36
2022-12-13T10:18:38.115Z,-3.34
2022-12-13T10:21:10.594Z,-3.33
2022-12-13T10:23:59.817Z,-3.30
2022-12-13T10:26:25.179Z,-3.29
2022-12-13T10:29:03.078Z,-3.25
2022-12-13T10:31:29.681Z,-3.24
2022-12-13T10:33:57.523Z,-3.21
2022-12-13T10:36:35.826Z,-3.16
2022-12-13T10:39:03.313Z,-3.09
2022-12-13T10:41:34.970Z,-3.06
2022-12-13T10:44:22.943Z,-3.05
2022-12-13T10:47:02.617Z,-3.01
2022-12-13T10:49:47.438Z,-2.97
2022-12-13T10:52:31.914Z,-2.92
2022-12-13T10:55:04.583Z,-2.85
2022-12-13T10:57:55.377Z,-2.83
2022-12-13T11:00:45.052Z,-2.77
2022-12-13T11:03:32.938Z,-2.71
2022-12-13T11:06:18.074Z,-2.68
2022-12-13T11:08:44.616Z,-2.66
2022-12-13T11:11:12.481Z,-2.62
2022-12-13T11:13:44.862Z,-2.59
2022-12-13T11:16:23.228Z,-2.55
2022-12-13T11:18:53.941Z,-2.53
2022-12-13T11:21:32.702Z,-2.49
2022-12-13T11:24:03.458Z,-2.42
2022-12-13T11:26:33.940Z,-2.37
2022-12-13T11:29:29.777Z,-2.35
2022-12-13T11:32:22.477Z,-2.34
2022-12-13T11:35:11.464Z,-2.30
2022-12-13T11:37:49.909Z,-2.22
2022-12-13T11:40:46.116Z,-2.22
2022-12-13T11:43:34.419Z,-2.26
2022-12-13T11:46:14.490Z,-2.27
2022-12-13T11:48:50.985Z,-2.19
2022-12-13T11:51:26.697Z,-2.22
2022-12-13T11:54:03.136Z,-2.18
2022-12-13T11:56:42.056Z,-2.19
2022-12-13T11:59:23.813Z,-2.18
2022-12-13T12:02:05.054Z,-2.15
2022-12-13T12:04:37.982Z,-2.10
2022-12-13T12:07:32.805Z,-2.08
2022-12-13T12:10:22.531Z,-2.05
2022-12-13T12:12:55.528Z,-2.06
2022-12-13T12:15:41.759Z,-2.04
2022-12-13T12:18:16.619Z,-2.02
2022-12-13T12:21:06.025Z,-1.99
2022-12-13T12:23:52.857Z,-1.98
2022-12-13T12:26:27.193Z,-1.97
2022-12-13T12:29:24.175Z,-1.97
2022-12-13T12:32:09.193Z,-1.94
2022-12-13T12:34:41.681Z,-1.92
2022-12-13T12:37:30.000Z,-1.95
2022-12-13T12:40:08.663Z,-1.95
2022-12-13T12:43:13.794Z,-1.93
2022-12-13T12:45:58.886Z,-1.86
2022-12-13T12:49:03.298Z,-1.85
2022-12-13T12:52:04.643Z,-1.84
2022-12-13T12:55:08.936Z,-1.82
2022-12-13T12:57:39.543Z,-1.79
2022-12-13T13:00:16.019Z,-1.75
2022-12-13T13:03:23.261Z,-1.74
2022-12-13T13:06:33.140Z,-1.73
2022-12-13T13:09:05.377Z,-1.75
2022-12-13T13:11:43.226Z,-1.75
2022-12-13T13:14:36.507Z,-1.73
2022-12-13T13:17:26.146Z,-1.75
2022-12-13T13:20:15.923Z,-1.76
2022-12-13T13:22:44.419Z,-1.76
2022-12-13T13:25:29.402Z,-1.76
2022-12-13T13:28:14.869Z,-1.75
2022-12-13T13:31:00.397Z,-1.74
2022-12-13T13:33:50.426Z,-1.74
2022-12-13T13:36:38.614Z,-1.76
2022-12-13T13:39:05.167Z,-1.76
2022-12-13T13:42:16.939Z,-1.78
2022-12-13T13:44:45.970Z,-1.80
2022-12-13T13:47:24.213Z,-1.84
2022-12-13T13:50:28.551Z,-1.82
2022-12-13T13:53:01.604Z,-1.79
2022-12-13T13:55:33.867Z,-1.76
2022-12-13T13:58:37.969Z,-1.79
2022-12-13T14:01:23.175Z,-1.78
2022-12-13T14:04:08.341Z,-1.77
2022-12-13T14:07:01.058Z,-1.79
2022-12-13T14:10:07.560Z,-1.79
2022-12-13T14:13:11.876Z,-1.79
2022-12-13T14:16:06.737Z,-1.79
2022-12-13T14:19:01.241Z,-1.77
2022-12-13T14:22:01.891Z,-1.80
2022-12-13T14:24:28.426Z,-1.80
2022-12-13T14:27:25.301Z,-1.81
2022-12-13T14:29:58.083Z,-1.84
2022-12-13T14:32:28.020Z,-1.83
2022-12-13T14:34:56.403Z,-1.85
2022-12-13T14:37:33.141Z,-1.86
2022-12-13T14:40:01.127Z,-1.88
2022-12-13T14:42:35.833Z,-1.92
2022-12-13T14:45:21.954Z,-1.93
2022-12-13T14:47:48.654Z,-2.01
2022-12-13T14:50:18.117Z,-2.02
2022-12-13T14:52:46.431Z,-2.10
2022-12-13T14:55:30.458Z,-2.15
2022-12-13T14:57:58.709Z,-2.16
2022-12-13T15:00:35.403Z,-2.25
2022-12-13T15:03:04.098Z,-2.29
2022-12-13T15:05:38.494Z,-2.29
2022-12-13T15:08:10.619Z,-2.34
2022-12-13T15:10:48.642Z,-2.38
2022-12-13T15:13:39.067Z,-2.44
2022-12-13T15:16:25.678Z,-2.55
2022-12-13T15:19:30.855Z,-2.62
2022-12-13T15:22:05.327Z,-2.59
2022-12-13T15:24:38.533Z,-2.66
2022-12-13T15:27:05.649Z,-2.71
2022-12-13T15:29:38.472Z,-2.79
2022-12-13T15:32:12.447Z,-2.82
2022-12-13T15:34:39.003Z,-2.90
2022-12-13T15:37:28.135Z,-2.94
2022-12-13T15:39:59.144Z,-3.01
2022-12-13T15:42:31.807Z,-3.06
2022-12-13T15:45:05.222Z,-3.08
2022-12-13T15:47:32.518Z,-3.12
2022-12-13T15:50:06.076Z,-3.14
2022-12-13T15:52:39.805Z,-3.16
2022-12-13T15:55:09.231Z,-3.20
2022-12-13T15:57:51.882Z,-3.22
2022-12-13T16:00:18.758Z,-3.26
2022-12-13T16:02:58.720Z,-3.29
2022-12-13T16:05:37.102Z,-3.32
2022-12-13T16:08:13.823Z,-3.33
2022-12-13T16:10:47.628Z,-3.34
2022-12-13T16:13:26.200Z,-3.36
2022-12-13T16:15:59.840Z,-3.31
2022-12-13T16:18:45.069Z,-3.31
2022-12-13T16:21:11.724Z,-3.32
2022-12-13T16:23:38.215Z,-3.32
2022-12-13T16:26:08.898Z,-3.33
2022-12-13T16:28:36.072Z,-3.31
2022-12-13T16:31:14.208Z,-3.32
2022-12-13T16:33:40.743Z,-3.32
2022-12-13T16:36:09.663Z,-3.37
2022-12-13T16:38:37.378Z,-3.35
2022-12-13T16:41:08.832Z,-3.26
2022-12-13T16:43:51.644Z,-3.23
2022-12-13T16:47:12.459Z,-3.24
2022-12-13T16:49:18.465Z,-3.23
2022-12-13T16:51:48.493Z,-3.21
2022-12-13T16:54:15.624Z,-3.24
2022-12-13T16:56:42.238Z,-3.23
2022-12-13T16:59:13.815Z,-3.19
2022-12-13T17:01:40.839Z,-3.18
2022-12-13T17:04:16.351Z,-3.17
2022-12-13T17:06:46.069Z,-3.17
2022-12-13T17:09:12.642Z,-3.20
2022-12-13T17:11:39.181Z,-3.18
2022-12-13T17:14:05.905Z,-3.18
2022-12-13T17:16:32.815Z,-3.19
2022-12-13T17:18:59.676Z,-3.17
2022-12-13T17:21:27.191Z,-3.12
2022-12-13T17:23:57.913Z,-3.12
2022-12-13T17:26:24.833Z,-3.13
2022-12-13T17:28:51.532Z,-3.15
2022-12-13T17:31:19.302Z,-3.13
2022-12-13T17:33:46.013Z,-3.11
2022-12-13T17:36:14.463Z,-3.14
2022-12-13T17:38:48.215Z,-3.13
2022-12-13T17:41:16.111Z,-3.13
2022-12-13T17:43:43.408Z,-3.17
2022-12-13T17:46:15.932Z,-3.11
2022-12-13T17:48:42.983Z,-3.08
2022-12-13T17:51:11.243Z,-3.11
2022-12-13T17:53:42.748Z,-3.11
2022-12-13T17:56:15.105Z,-3.14
2022-12-13T17:58:42.382Z,-3.15
2022-12-13T18:01:28.427Z,-3.11
2022-12-13T18:03:57.008Z,-3.15
2022-12-13T18:06:27.203Z,-3.14
2022-12-13T18:08:54.192Z,-3.15
2022-12-13T18:11:33.097Z,-3.17
2022-12-13T18:14:01.403Z,-3.12
2022-12-13T18:16:35.946Z,-3.14
2022-12-13T18:19:08.951Z,-3.17
2022-12-13T18:21:36.912Z,-3.21
2022-12-13T18:24:05.320Z,-3.23
2022-12-13T18:26:32.247Z,-3.21
2022-12-13T18:28:58.775Z,-3.19
2022-12-13T18:31:25.420Z,-3.18
2022-12-13T18:33:53.970Z,-3.20
2022-12-13T18:36:23.104Z,-3.19
2022-12-13T18:38:49.902Z,-3.18
2022-12-13T18:41:19.377Z,-3.23
2022-12-13T18:43:46.318Z,-3.26
2022-12-13T18:46:14.151Z,-3.30
2022-12-13T18:48:41.153Z,-3.36
2022-12-13T18:51:09.729Z,-3.29
2022-12-13T18:53:37.796Z,-3.34
2022-12-13T18:56:16.071Z,-3.39
2022-12-13T18:58:44.712Z,-3.40
2022-12-13T19:01:13.144Z,-3.44
2022-12-13T19:03:40.104Z,-3.48
2022-12-13T19:06:07.566Z,-3.53
2022-12-13T19:08:36.583Z,-3.58
2022-12-13T19:11:03.621Z,-3.62
2022-12-13T19:13:32.277Z,-3.67
2022-12-13T19:16:06.583Z,-3.69
2022-12-13T19:18:33.751Z,-3.75
2022-12-13T19:21:00.548Z,-3.77
2022-12-13T19:23:27.423Z,-3.81
2022-12-13T19:25:54.178Z,-3.84
2022-12-13T19:28:20.727Z,-3.91
2022-12-13T19:30:48.126Z,-3.89
2022-12-13T19:33:15.327Z,-3.91
2022-12-13T19:35:45.197Z,-3.89
2022-12-13T19:38:12.366Z,-3.94
2022-12-13T19:40:40.405Z,-3.97
2022-12-13T19:43:07.024Z,-4.01
2022-12-13T19:45:34.015Z,-4.07
2022-12-13T19:48:00.592Z,-4.10
2022-12-13T19:50:28.671Z,-4.14
2022-12-13T19:52:55.349Z,-4.11
2022-12-13T19:55:22.006Z,-4.10
2022-12-13T19:57:48.688Z,-4.14
2022-12-13T20:00:15.678Z,-4.14
2022-12-13T20:02:42.348Z,-4.20
2022-12-13T20:05:09.379Z,-4.21
2022-12-13T20:07:35.972Z,-4.24
2022-12-13T20:10:03.693Z,-4.26
2022-12-13T20:12:31.419Z,-4.35
2022-12-13T20:15:02.695Z,-4.35
2022-12-13T20:17:29.568Z,-4.41
2022-12-13T20:19:56.114Z,-4.41
2022-12-13T20:22:22.790Z,-4.39
2022-12-13T20:24:49.326Z,-4.44
2022-12-13T20:27:15.875Z,-4.46
2022-12-13T20:29:42.413Z,-4.47
2022-12-13T20:32:14.955Z,-4.50
2022-12-13T20:34:41.449Z,-4.53
2022-12-13T20:37:07.959Z,-4.57
2022-12-13T20:39:34.959Z,-4.64
2022-12-13T20:42:01.458Z,-4.62
2022-12-13T20:44:28.022Z,-4.65
2022-12-13T20:46:54.631Z,-4.65
2022-12-13T20:49:21.324Z,-4.67
2022-12-13T20:51:47.882Z,-4.67
2022-12-13T20:54:14.461Z,-4.63
2022-12-13T20:56:41.011Z,-4.65
2022-12-13T20:59:10.836Z,-4.64
2022-12-13T21:01:38.790Z,-4.68
2022-12-13T21:04:07.377Z,-4.71
2022-12-13T21:06:36.470Z,-4.74
2022-12-13T21:09:04.640Z,-4.75
2022-12-13T21:11:36.019Z,-4.82
2022-12-13T21:14:21.840Z,-4.80
2022-12-13T21:16:54.496Z,-4.82
2022-12-13T21:19:26.178Z,-4.85
2022-12-13T21:21:54.011Z,-4.89
2022-12-13T21:24:23.329Z,-4.89
2022-12-13T21:26:51.216Z,-4.91
2022-12-13T21:29:18.127Z,-4.93
2022-12-13T21:31:48.654Z,-4.95
2022-12-13T21:34:16.616Z,-4.97
2022-12-13T21:36:44.751Z,-4.94
2022-12-13T21:39:14.241Z,-4.96
2022-12-13T21:41:41.740Z,-4.96
2022-12-13T21:44:11.469Z,-4.95
2022-12-13T21:49:24.503Z,-5.01
2022-12-13T21:51:51.112Z,-5.03
2022-12-13T21:54:17.952Z,-5.03
2022-12-13T21:57:02.749Z,-5.08
2022-12-13T21:59:29.339Z,-5.14
2022-12-13T22:02:21.949Z,-5.11
2022-12-13T22:04:51.647Z,-5.12
2022-12-13T22:07:29.510Z,-5.18
2022-12-13T22:09:56.939Z,-5.24
2022-12-13T22:12:34.591Z,-5.24
2022-12-13T22:15:02.296Z,-5.23
2022-12-13T22:17:35.324Z,-5.19
2022-12-13T22:20:04.007Z,-5.20
2022-12-13T22:22:30.681Z,-5.24
2022-12-13T22:24:57.345Z,-5.26
2022-12-13T22:27:25.186Z,-5.30
2022-12-13T22:29:57.551Z,-5.32
2022-12-13T22:32:29.726Z,-5.35
2022-12-13T22:34:56.995Z,-5.36
2022-12-13T22:37:24.779Z,-5.38
2022-12-13T22:39:51.483Z,-5.41
2022-12-13T22:42:18.441Z,-5.41
2022-12-13T22:44:44.999Z,-5.46
2022-12-13T22:47:11.503Z,-5.47
2022-12-13T22:49:38.078Z,-5.45
2022-12-13T22:52:05.608Z,-5.48
2022-12-13T22:54:32.183Z,-5.46
2022-12-13T22:56:58.768Z,-5.50
2022-12-13T22:59:25.321Z,-5.51
2022-12-13T23:01:55.361Z,-5.52
2022-12-13T23:04:26.513Z,-5.53
2022-12-13T23:06:53.530Z,-5.59
2022-12-13T23:09:20.131Z,-5.63
2022-12-13T23:12:05.265Z,-5.62
2022-12-13T23:14:34.310Z,-5.65
2022-12-13T23:17:02.342Z,-5.70
2022-12-13T23:19:49.514Z,-5.66
2022-12-13T23:22:17.489Z,-5.73
2022-12-13T23:24:43.992Z,-5.73
2022-12-13T23:27:10.676Z,-5.74
2022-12-13T23:29:37.193Z,-5.79
2022-12-13T23:32:04.589Z,-5.86
2022-12-13T23:34:31.210Z,-5.84
2022-12-13T23:36:57.743Z,-5.76
2022-12-13T23:39:24.286Z,-5.82
2022-12-13T23:41:50.887Z,-5.83
2022-12-13T23:44:17.801Z,-5.84
2022-12-13T23:46:48.136Z,-5.84
2022-12-13T23:49:15.529Z,-5.84
2022-12-13T23:51:42.170Z,-5.85
2022-12-13T23:54:09.825Z,-5.88
2022-12-13T23:56:36.367Z,-5.91
2022-12-13T23:59:02.863Z,-5.92
